Aviation Digital Data Service (ADDS)

Output produced by METARs form (0450 UTC 22 February 2018)
found at http://bcaws.aviationweather.gov/adds/metars/
 
METAR text: KO22 220435Z AUTO 00000KT 10SM CLR 00/M07 A3017 RMK AO1
Conditions at: KO22 (COLUMBIA , CA, US) observed 0435 UTC 22 February 2018
Temperature: 0.0°C (32°F)
Dewpoint: -7.0°C (19°F) [RH = 59%]
Pressure (altimeter): 30.17 inches Hg (1021.8 mb)
Winds: calm
Visibility: 10 or more miles (16+ km)
Ceiling: at least 12,000 feet AGL
Clouds: sky clear below 12,000 feet AGL
Weather: automated observation with no human augmentation;
there may or may not be significant weather present at this time